sensor_id;sensor_type;location;lat;lon;timestamp;P1;durP1;ratioP1;P2;durP2;ratioP2
33188;SDS011;52601;53.070;10.600;2023-04-03T00:00:48;5.07;;;2.33;;
33188;SDS011;52601;53.070;10.600;2023-04-03T00:03:35;6.18;;;1.63;;
33188;SDS011;52601;53.070;10.600;2023-04-03T00:06:21;8.00;;;2.45;;
33188;SDS011;52601;53.070;10.600;2023-04-03T00:09:07;11.20;;;1.98;;
33188;SDS011;52601;53.070;10.600;2023-04-03T00:11:54;8.23;;;1.73;;
33188;SDS011;52601;53.070;10.600;2023-04-03T00:14:40;9.50;;;2.15;;
33188;SDS011;52601;53.070;10.600;2023-04-03T00:17:26;5.78;;;1.20;;
33188;SDS011;52601;53.070;10.600;2023-04-03T00:20:11;12.35;;;2.35;;
33188;SDS011;52601;53.070;10.600;2023-04-03T00:22:57;5.20;;;1.60;;
33188;SDS011;52601;53.070;10.600;2023-04-03T00:25:43;9.60;;;2.30;;
33188;SDS011;52601;53.070;10.600;2023-04-03T00:28:29;6.00;;;1.63;;
33188;SDS011;52601;53.070;10.600;2023-04-03T00:31:15;8.63;;;1.92;;
33188;SDS011;52601;53.070;10.600;2023-04-03T00:34:01;6.15;;;1.80;;
33188;SDS011;52601;53.070;10.600;2023-04-03T00:36:47;6.53;;;2.00;;
33188;SDS011;52601;53.070;10.600;2023-04-03T00:39:32;11.77;;;2.22;;
33188;SDS011;52601;53.070;10.600;2023-04-03T00:42:18;3.08;;;1.30;;
33188;SDS011;52601;53.070;10.600;2023-04-03T00:47:51;7.53;;;2.58;;
33188;SDS011;52601;53.070;10.600;2023-04-03T00:50:38;12.02;;;1.98;;
33188;SDS011;52601;53.070;10.600;2023-04-03T00:53:32;5.45;;;1.65;;
33188;SDS011;52601;53.070;10.600;2023-04-03T00:56:23;5.22;;;1.52;;
33188;SDS011;52601;53.070;10.600;2023-04-03T00:59:18;7.07;;;2.13;;
33188;SDS011;52601;53.070;10.600;2023-04-03T01:02:10;7.60;;;1.95;;
33188;SDS011;52601;53.070;10.600;2023-04-03T01:04:56;3.97;;;1.73;;
33188;SDS011;52601;53.070;10.600;2023-04-03T01:07:41;5.05;;;2.10;;
33188;SDS011;52601;53.070;10.600;2023-04-03T01:10:27;5.82;;;1.90;;
33188;SDS011;52601;53.070;10.600;2023-04-03T01:13:20;10.70;;;2.20;;
33188;SDS011;52601;53.070;10.600;2023-04-03T01:16:09;3.87;;;2.20;;
33188;SDS011;52601;53.070;10.600;2023-04-03T01:18:54;7.82;;;1.95;;
33188;SDS011;52601;53.070;10.600;2023-04-03T01:21:47;3.75;;;2.10;;
33188;SDS011;52601;53.070;10.600;2023-04-03T01:24:50;10.82;;;2.25;;
33188;SDS011;52601;53.070;10.600;2023-04-03T01:27:38;5.00;;;1.80;;
33188;SDS011;52601;53.070;10.600;2023-04-03T01:30:25;10.75;;;2.83;;
33188;SDS011;52601;53.070;10.600;2023-04-03T01:33:15;7.85;;;2.67;;
33188;SDS011;52601;53.070;10.600;2023-04-03T01:36:02;8.55;;;2.33;;
33188;SDS011;52601;53.070;10.600;2023-04-03T01:38:48;3.13;;;1.60;;
33188;SDS011;52601;53.070;10.600;2023-04-03T01:41:34;8.98;;;2.75;;
33188;SDS011;52601;53.070;10.600;2023-04-03T01:44:20;5.88;;;2.40;;
33188;SDS011;52601;53.070;10.600;2023-04-03T01:47:05;6.30;;;1.67;;
33188;SDS011;52601;53.070;10.600;2023-04-03T01:52:37;7.03;;;2.35;;
33188;SDS011;52601;53.070;10.600;2023-04-03T01:55:22;9.80;;;2.33;;
33188;SDS011;52601;53.070;10.600;2023-04-03T01:58:07;5.55;;;2.05;;
33188;SDS011;52601;53.070;10.600;2023-04-03T02:00:53;4.30;;;1.95;;
33188;SDS011;52601;53.070;10.600;2023-04-03T02:06:25;7.70;;;2.35;;
33188;SDS011;52601;53.070;10.600;2023-04-03T02:09:11;7.30;;;1.90;;
33188;SDS011;52601;53.070;10.600;2023-04-03T02:11:56;6.47;;;1.93;;
33188;SDS011;52601;53.070;10.600;2023-04-03T02:14:41;3.20;;;1.40;;
33188;SDS011;52601;53.070;10.600;2023-04-03T02:17:27;4.00;;;1.47;;
33188;SDS011;52601;53.070;10.600;2023-04-03T02:20:13;6.65;;;2.17;;
33188;SDS011;52601;53.070;10.600;2023-04-03T02:22:59;4.70;;;1.30;;
33188;SDS011;52601;53.070;10.600;2023-04-03T02:25:45;5.95;;;1.58;;
33188;SDS011;52601;53.070;10.600;2023-04-03T02:28:31;5.22;;;1.85;;
33188;SDS011;52601;53.070;10.600;2023-04-03T02:31:16;4.88;;;1.90;;
33188;SDS011;52601;53.070;10.600;2023-04-03T02:34:02;7.35;;;2.17;;
33188;SDS011;52601;53.070;10.600;2023-04-03T02:36:47;13.87;;;2.60;;
33188;SDS011;52601;53.070;10.600;2023-04-03T02:39:33;5.20;;;2.10;;
33188;SDS011;52601;53.070;10.600;2023-04-03T02:42:19;12.93;;;2.80;;
33188;SDS011;52601;53.070;10.600;2023-04-03T02:45:04;6.28;;;1.88;;
33188;SDS011;52601;53.070;10.600;2023-04-03T02:50:36;9.13;;;2.10;;
33188;SDS011;52601;53.070;10.600;2023-04-03T02:53:22;10.02;;;2.85;;
33188;SDS011;52601;53.070;10.600;2023-04-03T02:58:54;5.15;;;1.90;;
33188;SDS011;52601;53.070;10.600;2023-04-03T03:01:39;4.45;;;2.00;;
33188;SDS011;52601;53.070;10.600;2023-04-03T03:04:25;5.55;;;2.45;;
33188;SDS011;52601;53.070;10.600;2023-04-03T03:07:10;6.53;;;2.58;;
33188;SDS011;52601;53.070;10.600;2023-04-03T03:09:56;6.15;;;2.33;;
33188;SDS011;52601;53.070;10.600;2023-04-03T03:12:41;14.70;;;2.58;;
33188;SDS011;52601;53.070;10.600;2023-04-03T03:15:27;9.10;;;2.50;;
33188;SDS011;52601;53.070;10.600;2023-04-03T03:18:12;2.80;;;1.23;;
33188;SDS011;52601;53.070;10.600;2023-04-03T03:20:58;6.38;;;2.28;;
33188;SDS011;52601;53.070;10.600;2023-04-03T03:23:45;7.75;;;2.28;;
33188;SDS011;52601;53.070;10.600;2023-04-03T03:26:30;8.48;;;3.20;;
33188;SDS011;52601;53.070;10.600;2023-04-03T03:29:16;5.60;;;2.25;;
33188;SDS011;52601;53.070;10.600;2023-04-03T03:32:02;5.77;;;1.77;;
33188;SDS011;52601;53.070;10.600;2023-04-03T03:34:47;6.35;;;1.90;;
33188;SDS011;52601;53.070;10.600;2023-04-03T03:37:33;8.55;;;2.50;;
33188;SDS011;52601;53.070;10.600;2023-04-03T03:40:18;6.47;;;2.35;;
33188;SDS011;52601;53.070;10.600;2023-04-03T03:43:04;8.23;;;2.25;;
33188;SDS011;52601;53.070;10.600;2023-04-03T03:48:37;6.13;;;2.63;;
33188;SDS011;52601;53.070;10.600;2023-04-03T03:51:22;5.20;;;2.38;;
33188;SDS011;52601;53.070;10.600;2023-04-03T03:54:07;7.23;;;1.73;;
33188;SDS011;52601;53.070;10.600;2023-04-03T03:56:53;7.63;;;2.75;;
33188;SDS011;52601;53.070;10.600;2023-04-03T03:59:38;8.13;;;1.85;;
33188;SDS011;52601;53.070;10.600;2023-04-03T04:02:26;9.95;;;3.20;;
33188;SDS011;52601;53.070;10.600;2023-04-03T04:07:58;8.80;;;2.67;;
33188;SDS011;52601;53.070;10.600;2023-04-03T04:10:44;8.98;;;3.08;;
33188;SDS011;52601;53.070;10.600;2023-04-03T04:16:15;11.07;;;3.47;;
33188;SDS011;52601;53.070;10.600;2023-04-03T04:19:01;8.00;;;3.15;;
33188;SDS011;52601;53.070;10.600;2023-04-03T04:21:47;14.80;;;4.30;;
33188;SDS011;52601;53.070;10.600;2023-04-03T04:24:32;10.63;;;3.10;;
33188;SDS011;52601;53.070;10.600;2023-04-03T04:27:18;10.20;;;2.90;;
33188;SDS011;52601;53.070;10.600;2023-04-03T04:30:03;12.07;;;3.30;;
33188;SDS011;52601;53.070;10.600;2023-04-03T04:32:49;9.27;;;3.67;;
33188;SDS011;52601;53.070;10.600;2023-04-03T04:35:35;8.45;;;3.28;;
33188;SDS011;52601;53.070;10.600;2023-04-03T04:41:07;11.68;;;3.63;;
33188;SDS011;52601;53.070;10.600;2023-04-03T04:43:53;15.60;;;3.53;;
33188;SDS011;52601;53.070;10.600;2023-04-03T04:46:39;6.13;;;2.78;;
33188;SDS011;52601;53.070;10.600;2023-04-03T04:49:25;8.32;;;3.55;;
33188;SDS011;52601;53.070;10.600;2023-04-03T04:52:10;12.35;;;3.50;;
33188;SDS011;52601;53.070;10.600;2023-04-03T04:54:56;13.77;;;3.40;;
33188;SDS011;52601;53.070;10.600;2023-04-03T04:57:41;9.18;;;3.50;;
33188;SDS011;52601;53.070;10.600;2023-04-03T05:00:27;8.73;;;3.50;;
33188;SDS011;52601;53.070;10.600;2023-04-03T05:03:12;14.77;;;3.70;;
33188;SDS011;52601;53.070;10.600;2023-04-03T05:05:58;5.73;;;3.30;;
33188;SDS011;52601;53.070;10.600;2023-04-03T05:08:44;11.57;;;3.22;;
33188;SDS011;52601;53.070;10.600;2023-04-03T05:11:29;4.47;;;2.20;;
33188;SDS011;52601;53.070;10.600;2023-04-03T05:14:15;7.50;;;2.97;;
33188;SDS011;52601;53.070;10.600;2023-04-03T05:17:00;9.38;;;2.60;;
33188;SDS011;52601;53.070;10.600;2023-04-03T05:19:46;12.67;;;3.80;;
33188;SDS011;52601;53.070;10.600;2023-04-03T05:22:32;10.15;;;2.67;;
33188;SDS011;52601;53.070;10.600;2023-04-03T05:25:17;9.20;;;3.17;;
33188;SDS011;52601;53.070;10.600;2023-04-03T05:28:03;5.18;;;2.47;;
33188;SDS011;52601;53.070;10.600;2023-04-03T05:30:55;7.35;;;3.47;;
33188;SDS011;52601;53.070;10.600;2023-04-03T05:33:42;6.22;;;2.90;;
33188;SDS011;52601;53.070;10.600;2023-04-03T05:36:27;7.22;;;2.90;;
33188;SDS011;52601;53.070;10.600;2023-04-03T05:39:13;5.72;;;1.98;;
33188;SDS011;52601;53.070;10.600;2023-04-03T05:41:58;9.65;;;3.35;;
33188;SDS011;52601;53.070;10.600;2023-04-03T05:44:44;9.43;;;3.30;;
33188;SDS011;52601;53.070;10.600;2023-04-03T05:47:32;8.00;;;3.17;;
33188;SDS011;52601;53.070;10.600;2023-04-03T05:50:18;13.23;;;4.07;;
33188;SDS011;52601;53.070;10.600;2023-04-03T05:53:03;10.57;;;3.72;;
33188;SDS011;52601;53.070;10.600;2023-04-03T05:55:50;8.38;;;3.13;;
33188;SDS011;52601;53.070;10.600;2023-04-03T05:58:36;12.52;;;3.65;;
33188;SDS011;52601;53.070;10.600;2023-04-03T06:01:21;9.13;;;3.70;;
33188;SDS011;52601;53.070;10.600;2023-04-03T06:04:07;11.05;;;3.58;;
33188;SDS011;52601;53.070;10.600;2023-04-03T06:06:55;9.45;;;3.30;;
33188;SDS011;52601;53.070;10.600;2023-04-03T06:09:42;9.00;;;2.97;;
33188;SDS011;52601;53.070;10.600;2023-04-03T06:12:28;8.60;;;3.08;;
33188;SDS011;52601;53.070;10.600;2023-04-03T06:15:16;7.80;;;3.20;;
33188;SDS011;52601;53.070;10.600;2023-04-03T06:18:02;6.00;;;2.75;;
33188;SDS011;52601;53.070;10.600;2023-04-03T06:20:47;15.35;;;3.15;;
33188;SDS011;52601;53.070;10.600;2023-04-03T06:23:33;3.88;;;2.03;;
33188;SDS011;52601;53.070;10.600;2023-04-03T06:26:19;7.70;;;3.20;;
33188;SDS011;52601;53.070;10.600;2023-04-03T06:29:06;11.77;;;3.17;;
33188;SDS011;52601;53.070;10.600;2023-04-03T06:34:37;5.72;;;2.28;;
33188;SDS011;52601;53.070;10.600;2023-04-03T06:37:22;3.17;;;1.98;;
33188;SDS011;52601;53.070;10.600;2023-04-03T06:40:14;7.38;;;1.33;;
33188;SDS011;52601;53.070;10.600;2023-04-03T06:43:05;5.70;;;2.30;;
33188;SDS011;52601;53.070;10.600;2023-04-03T06:45:51;7.28;;;1.90;;
33188;SDS011;52601;53.070;10.600;2023-04-03T06:48:37;5.53;;;1.40;;
33188;SDS011;52601;53.070;10.600;2023-04-03T06:51:24;7.57;;;1.70;;
33188;SDS011;52601;53.070;10.600;2023-04-03T06:54:11;3.55;;;1.35;;
33188;SDS011;52601;53.070;10.600;2023-04-03T06:56:57;3.67;;;1.33;;
33188;SDS011;52601;53.070;10.600;2023-04-03T06:59:43;2.55;;;1.63;;
33188;SDS011;52601;53.070;10.600;2023-04-03T07:02:28;2.30;;;1.37;;
33188;SDS011;52601;53.070;10.600;2023-04-03T07:05:14;2.20;;;1.10;;
33188;SDS011;52601;53.070;10.600;2023-04-03T07:07:59;5.27;;;1.33;;
33188;SDS011;52601;53.070;10.600;2023-04-03T07:13:31;4.20;;;1.67;;
33188;SDS011;52601;53.070;10.600;2023-04-03T07:16:17;4.93;;;0.95;;
33188;SDS011;52601;53.070;10.600;2023-04-03T07:19:03;7.63;;;1.60;;
33188;SDS011;52601;53.070;10.600;2023-04-03T07:21:48;3.22;;;1.52;;
33188;SDS011;52601;53.070;10.600;2023-04-03T07:24:33;4.72;;;1.38;;
33188;SDS011;52601;53.070;10.600;2023-04-03T07:27:19;1.98;;;1.00;;
33188;SDS011;52601;53.070;10.600;2023-04-03T07:30:05;3.25;;;1.02;;
33188;SDS011;52601;53.070;10.600;2023-04-03T07:32:51;4.47;;;1.17;;
33188;SDS011;52601;53.070;10.600;2023-04-03T07:35:37;3.35;;;1.08;;
33188;SDS011;52601;53.070;10.600;2023-04-03T07:38:23;2.67;;;0.80;;
33188;SDS011;52601;53.070;10.600;2023-04-03T07:41:11;3.53;;;1.25;;
33188;SDS011;52601;53.070;10.600;2023-04-03T07:44:00;3.22;;;0.90;;
33188;SDS011;52601;53.070;10.600;2023-04-03T07:46:46;5.03;;;1.10;;
33188;SDS011;52601;53.070;10.600;2023-04-03T07:49:32;4.00;;;1.02;;
33188;SDS011;52601;53.070;10.600;2023-04-03T07:52:17;4.50;;;1.30;;
33188;SDS011;52601;53.070;10.600;2023-04-03T07:55:03;3.30;;;1.27;;
33188;SDS011;52601;53.070;10.600;2023-04-03T07:57:50;1.75;;;0.88;;
33188;SDS011;52601;53.070;10.600;2023-04-03T08:00:36;3.92;;;1.08;;
33188;SDS011;52601;53.070;10.600;2023-04-03T08:03:21;7.97;;;1.02;;
33188;SDS011;52601;53.070;10.600;2023-04-03T08:06:07;2.65;;;0.75;;
33188;SDS011;52601;53.070;10.600;2023-04-03T08:08:59;2.70;;;0.80;;
33188;SDS011;52601;53.070;10.600;2023-04-03T08:11:45;2.33;;;0.82;;
33188;SDS011;52601;53.070;10.600;2023-04-03T08:14:31;5.80;;;1.33;;
33188;SDS011;52601;53.070;10.600;2023-04-03T08:17:19;3.10;;;0.93;;
33188;SDS011;52601;53.070;10.600;2023-04-03T08:20:05;3.67;;;0.50;;
33188;SDS011;52601;53.070;10.600;2023-04-03T08:22:53;2.05;;;0.95;;
33188;SDS011;52601;53.070;10.600;2023-04-03T08:25:42;5.55;;;0.80;;
33188;SDS011;52601;53.070;10.600;2023-04-03T08:28:28;1.73;;;0.52;;
33188;SDS011;52601;53.070;10.600;2023-04-03T08:31:15;0.17;;;0.17;;
33188;SDS011;52601;53.070;10.600;2023-04-03T08:34:03;0.98;;;0.63;;
33188;SDS011;52601;53.070;10.600;2023-04-03T08:36:49;0.30;;;0.30;;
33188;SDS011;52601;53.070;10.600;2023-04-03T08:39:35;2.35;;;0.32;;
33188;SDS011;52601;53.070;10.600;2023-04-03T08:45:38;0.70;;;0.50;;
33188;SDS011;52601;53.070;10.600;2023-04-03T08:48:34;2.13;;;0.38;;
33188;SDS011;52601;53.070;10.600;2023-04-03T08:51:24;0.90;;;0.50;;
33188;SDS011;52601;53.070;10.600;2023-04-03T08:54:15;1.95;;;0.50;;
33188;SDS011;52601;53.070;10.600;2023-04-03T08:57:12;10.88;;;1.38;;
33188;SDS011;52601;53.070;10.600;2023-04-03T08:59:59;1.07;;;0.60;;
33188;SDS011;52601;53.070;10.600;2023-04-03T09:02:51;0.73;;;0.30;;
33188;SDS011;52601;53.070;10.600;2023-04-03T09:05:43;1.67;;;0.47;;
33188;SDS011;52601;53.070;10.600;2023-04-03T09:08:36;0.93;;;0.40;;
33188;SDS011;52601;53.070;10.600;2023-04-03T09:12:13;1.15;;;0.30;;
33188;SDS011;52601;53.070;10.600;2023-04-03T09:17:57;2.50;;;0.67;;
33188;SDS011;52601;53.070;10.600;2023-04-03T09:20:57;1.15;;;0.93;;
33188;SDS011;52601;53.070;10.600;2023-04-03T09:23:53;0.90;;;0.52;;
33188;SDS011;52601;53.070;10.600;2023-04-03T09:26:44;0.52;;;0.20;;
33188;SDS011;52601;53.070;10.600;2023-04-03T09:29:41;1.30;;;0.30;;
33188;SDS011;52601;53.070;10.600;2023-04-03T09:32:31;1.17;;;0.45;;
33188;SDS011;52601;53.070;10.600;2023-04-03T09:35:34;1.38;;;0.47;;
33188;SDS011;52601;53.070;10.600;2023-04-03T09:38:33;0.77;;;0.20;;
33188;SDS011;52601;53.070;10.600;2023-04-03T09:41:19;0.30;;;0.30;;
33188;SDS011;52601;53.070;10.600;2023-04-03T09:44:17;0.22;;;0.22;;
33188;SDS011;52601;53.070;10.600;2023-04-03T09:53:06;0.60;;;0.40;;
33188;SDS011;52601;53.070;10.600;2023-04-03T09:55:52;0.38;;;0.30;;
33188;SDS011;52601;53.070;10.600;2023-04-03T09:58:39;1.13;;;0.50;;
33188;SDS011;52601;53.070;10.600;2023-04-03T10:01:38;0.47;;;0.40;;
33188;SDS011;52601;53.070;10.600;2023-04-03T10:04:27;0.80;;;0.40;;
33188;SDS011;52601;53.070;10.600;2023-04-03T10:07:33;0.83;;;0.77;;
33188;SDS011;52601;53.070;10.600;2023-04-03T10:10:22;2.13;;;0.40;;
33188;SDS011;52601;53.070;10.600;2023-04-03T10:13:15;1.30;;;0.50;;
33188;SDS011;52601;53.070;10.600;2023-04-03T10:16:10;0.50;;;0.38;;
33188;SDS011;52601;53.070;10.600;2023-04-03T10:21:59;8.27;;;1.43;;
33188;SDS011;52601;53.070;10.600;2023-04-03T10:24:57;0.50;;;0.32;;
33188;SDS011;52601;53.070;10.600;2023-04-03T10:27:58;0.43;;;0.30;;
33188;SDS011;52601;53.070;10.600;2023-04-03T10:33:47;1.17;;;0.40;;
33188;SDS011;52601;53.070;10.600;2023-04-03T10:36:53;1.05;;;0.52;;
33188;SDS011;52601;53.070;10.600;2023-04-03T10:40:02;1.67;;;0.30;;
33188;SDS011;52601;53.070;10.600;2023-04-03T10:43:08;1.00;;;0.50;;
33188;SDS011;52601;53.070;10.600;2023-04-03T10:46:07;2.08;;;0.57;;
33188;SDS011;52601;53.070;10.600;2023-04-03T10:49:19;0.28;;;0.20;;
33188;SDS011;52601;53.070;10.600;2023-04-03T10:58:21;0.30;;;0.25;;
33188;SDS011;52601;53.070;10.600;2023-04-03T11:01:16;0.30;;;0.30;;
33188;SDS011;52601;53.070;10.600;2023-04-03T11:04:07;1.98;;;0.25;;
33188;SDS011;52601;53.070;10.600;2023-04-03T11:07:04;1.38;;;0.45;;
33188;SDS011;52601;53.070;10.600;2023-04-03T11:09:56;1.05;;;0.45;;
33188;SDS011;52601;53.070;10.600;2023-04-03T11:12:48;1.85;;;0.40;;
33188;SDS011;52601;53.070;10.600;2023-04-03T11:15:38;0.50;;;0.30;;
33188;SDS011;52601;53.070;10.600;2023-04-03T11:21:34;2.45;;;0.52;;
33188;SDS011;52601;53.070;10.600;2023-04-03T11:24:22;1.67;;;0.45;;
33188;SDS011;52601;53.070;10.600;2023-04-03T11:27:15;0.70;;;0.52;;
33188;SDS011;52601;53.070;10.600;2023-04-03T11:30:09;0.40;;;0.22;;
33188;SDS011;52601;53.070;10.600;2023-04-03T11:36:20;2.13;;;0.88;;
33188;SDS011;52601;53.070;10.600;2023-04-03T11:39:23;2.70;;;1.00;;
33188;SDS011;52601;53.070;10.600;2023-04-03T11:54:34;1.55;;;0.68;;
33188;SDS011;52601;53.070;10.600;2023-04-03T11:57:43;1.45;;;0.50;;
33188;SDS011;52601;53.070;10.600;2023-04-03T12:09:02;0.40;;;0.40;;
33188;SDS011;52601;53.070;10.600;2023-04-03T12:12:01;2.75;;;0.50;;
33188;SDS011;52601;53.070;10.600;2023-04-03T12:15:38;0.75;;;0.43;;
33188;SDS011;52601;53.070;10.600;2023-04-03T12:18:53;1.38;;;0.70;;
33188;SDS011;52601;53.070;10.600;2023-04-03T12:24:34;2.03;;;0.73;;
33188;SDS011;52601;53.070;10.600;2023-04-03T12:27:25;0.82;;;0.55;;
33188;SDS011;52601;53.070;10.600;2023-04-03T12:30:27;1.50;;;0.60;;
33188;SDS011;52601;53.070;10.600;2023-04-03T12:33:30;1.05;;;0.50;;
33188;SDS011;52601;53.070;10.600;2023-04-03T12:36:42;1.38;;;0.50;;
33188;SDS011;52601;53.070;10.600;2023-04-03T12:43:01;1.30;;;0.63;;
33188;SDS011;52601;53.070;10.600;2023-04-03T12:46:20;0.75;;;0.50;;
33188;SDS011;52601;53.070;10.600;2023-04-03T12:52:06;1.20;;;0.47;;
33188;SDS011;52601;53.070;10.600;2023-04-03T12:55:07;4.47;;;0.93;;
33188;SDS011;52601;53.070;10.600;2023-04-03T13:01:10;2.92;;;0.50;;
33188;SDS011;52601;53.070;10.600;2023-04-03T13:03:59;0.82;;;0.43;;
33188;SDS011;52601;53.070;10.600;2023-04-03T13:06:44;2.93;;;0.30;;
33188;SDS011;52601;53.070;10.600;2023-04-03T13:09:30;0.63;;;0.40;;
33188;SDS011;52601;53.070;10.600;2023-04-03T13:12:17;1.58;;;0.70;;
33188;SDS011;52601;53.070;10.600;2023-04-03T13:15:12;0.50;;;0.30;;
33188;SDS011;52601;53.070;10.600;2023-04-03T13:18:20;1.17;;;0.70;;
33188;SDS011;52601;53.070;10.600;2023-04-03T13:21:17;2.40;;;0.65;;
33188;SDS011;52601;53.070;10.600;2023-04-03T13:24:06;5.20;;;0.68;;
33188;SDS011;52601;53.070;10.600;2023-04-03T13:27:00;1.27;;;0.65;;
33188;SDS011;52601;53.070;10.600;2023-04-03T13:29:50;2.28;;;0.93;;
33188;SDS011;52601;53.070;10.600;2023-04-03T13:32:41;4.57;;;0.60;;
33188;SDS011;52601;53.070;10.600;2023-04-03T13:35:30;0.85;;;0.30;;
33188;SDS011;52601;53.070;10.600;2023-04-03T13:38:26;0.82;;;0.68;;
33188;SDS011;52601;53.070;10.600;2023-04-03T13:41:24;1.30;;;0.40;;
33188;SDS011;52601;53.070;10.600;2023-04-03T13:44:15;1.35;;;0.50;;
33188;SDS011;52601;53.070;10.600;2023-04-03T13:47:17;0.55;;;0.32;;
33188;SDS011;52601;53.070;10.600;2023-04-03T13:53:03;1.75;;;0.63;;
33188;SDS011;52601;53.070;10.600;2023-04-03T13:58:52;0.90;;;0.40;;
33188;SDS011;52601;53.070;10.600;2023-04-03T14:07:22;3.30;;;0.63;;
33188;SDS011;52601;53.070;10.600;2023-04-03T14:10:09;1.52;;;0.70;;
33188;SDS011;52601;53.070;10.600;2023-04-03T14:12:54;12.40;;;1.23;;
33188;SDS011;52601;53.070;10.600;2023-04-03T14:15:40;5.97;;;0.50;;
33188;SDS011;52601;53.070;10.600;2023-04-03T14:18:27;0.90;;;0.55;;
33188;SDS011;52601;53.070;10.600;2023-04-03T14:21:13;1.80;;;0.65;;
33188;SDS011;52601;53.070;10.600;2023-04-03T14:24:01;0.35;;;0.32;;
33188;SDS011;52601;53.070;10.600;2023-04-03T14:26:47;1.27;;;0.30;;
33188;SDS011;52601;53.070;10.600;2023-04-03T14:29:34;0.95;;;0.50;;
33188;SDS011;52601;53.070;10.600;2023-04-03T14:35:07;0.63;;;0.30;;
33188;SDS011;52601;53.070;10.600;2023-04-03T14:37:53;1.25;;;0.52;;
33188;SDS011;52601;53.070;10.600;2023-04-03T14:40:40;1.55;;;0.40;;
33188;SDS011;52601;53.070;10.600;2023-04-03T14:43:26;3.10;;;0.40;;
33188;SDS011;52601;53.070;10.600;2023-04-03T14:46:13;1.15;;;0.50;;
33188;SDS011;52601;53.070;10.600;2023-04-03T14:49:38;2.90;;;0.90;;
33188;SDS011;52601;53.070;10.600;2023-04-03T14:52:24;1.42;;;0.52;;
33188;SDS011;52601;53.070;10.600;2023-04-03T14:55:16;0.60;;;0.38;;
33188;SDS011;52601;53.070;10.600;2023-04-03T14:58:03;2.40;;;0.65;;
33188;SDS011;52601;53.070;10.600;2023-04-03T15:00:49;1.77;;;0.50;;
33188;SDS011;52601;53.070;10.600;2023-04-03T15:03:34;1.35;;;0.50;;
33188;SDS011;52601;53.070;10.600;2023-04-03T15:06:20;0.30;;;0.30;;
33188;SDS011;52601;53.070;10.600;2023-04-03T15:09:10;0.50;;;0.40;;
33188;SDS011;52601;53.070;10.600;2023-04-03T15:12:04;0.65;;;0.40;;
33188;SDS011;52601;53.070;10.600;2023-04-03T15:14:49;5.50;;;0.43;;
33188;SDS011;52601;53.070;10.600;2023-04-03T15:17:41;0.95;;;0.50;;
33188;SDS011;52601;53.070;10.600;2023-04-03T15:23:15;0.50;;;0.50;;
33188;SDS011;52601;53.070;10.600;2023-04-03T15:28:48;2.28;;;0.75;;
33188;SDS011;52601;53.070;10.600;2023-04-03T15:31:33;0.32;;;0.32;;
33188;SDS011;52601;53.070;10.600;2023-04-03T15:34:19;0.95;;;0.55;;
33188;SDS011;52601;53.070;10.600;2023-04-03T15:37:07;1.42;;;0.80;;
33188;SDS011;52601;53.070;10.600;2023-04-03T15:39:52;1.02;;;0.55;;
33188;SDS011;52601;53.070;10.600;2023-04-03T15:42:38;1.05;;;0.40;;
33188;SDS011;52601;53.070;10.600;2023-04-03T15:45:24;1.53;;;0.60;;
33188;SDS011;52601;53.070;10.600;2023-04-03T15:48:10;0.57;;;0.38;;
33188;SDS011;52601;53.070;10.600;2023-04-03T15:50:56;0.55;;;0.43;;
33188;SDS011;52601;53.070;10.600;2023-04-03T15:53:43;0.40;;;0.40;;
33188;SDS011;52601;53.070;10.600;2023-04-03T15:56:28;1.58;;;0.50;;
33188;SDS011;52601;53.070;10.600;2023-04-03T15:59:14;1.40;;;0.80;;
33188;SDS011;52601;53.070;10.600;2023-04-03T16:01:59;1.37;;;0.60;;
33188;SDS011;52601;53.070;10.600;2023-04-03T16:04:48;1.30;;;0.57;;
33188;SDS011;52601;53.070;10.600;2023-04-03T16:07:34;2.35;;;0.82;;
33188;SDS011;52601;53.070;10.600;2023-04-03T16:10:21;2.22;;;0.63;;
33188;SDS011;52601;53.070;10.600;2023-04-03T16:13:07;0.98;;;0.52;;
33188;SDS011;52601;53.070;10.600;2023-04-03T16:15:52;0.80;;;0.40;;
33188;SDS011;52601;53.070;10.600;2023-04-03T16:18:38;1.17;;;0.50;;
33188;SDS011;52601;53.070;10.600;2023-04-03T16:21:24;1.10;;;0.70;;
33188;SDS011;52601;53.070;10.600;2023-04-03T16:24:09;1.48;;;0.63;;
33188;SDS011;52601;53.070;10.600;2023-04-03T16:26:55;1.40;;;0.57;;
33188;SDS011;52601;53.070;10.600;2023-04-03T16:29:40;1.83;;;0.80;;
33188;SDS011;52601;53.070;10.600;2023-04-03T16:32:27;2.17;;;0.77;;
33188;SDS011;52601;53.070;10.600;2023-04-03T16:35:15;1.52;;;0.70;;
33188;SDS011;52601;53.070;10.600;2023-04-03T16:38:01;2.28;;;0.50;;
33188;SDS011;52601;53.070;10.600;2023-04-03T16:40:47;3.72;;;0.90;;
33188;SDS011;52601;53.070;10.600;2023-04-03T16:43:33;1.75;;;0.73;;
33188;SDS011;52601;53.070;10.600;2023-04-03T16:46:20;1.42;;;0.80;;
33188;SDS011;52601;53.070;10.600;2023-04-03T16:49:06;2.27;;;0.90;;
33188;SDS011;52601;53.070;10.600;2023-04-03T16:51:51;0.73;;;0.60;;
33188;SDS011;52601;53.070;10.600;2023-04-03T16:54:37;7.45;;;1.17;;
33188;SDS011;52601;53.070;10.600;2023-04-03T16:57:22;2.88;;;0.73;;
33188;SDS011;52601;53.070;10.600;2023-04-03T17:00:10;3.75;;;0.90;;
33188;SDS011;52601;53.070;10.600;2023-04-03T17:02:56;1.40;;;0.77;;
33188;SDS011;52601;53.070;10.600;2023-04-03T17:05:42;2.92;;;1.20;;
33188;SDS011;52601;53.070;10.600;2023-04-03T17:08:29;6.43;;;1.50;;
33188;SDS011;52601;53.070;10.600;2023-04-03T17:11:14;1.77;;;0.93;;
33188;SDS011;52601;53.070;10.600;2023-04-03T17:13:59;3.03;;;0.67;;
33188;SDS011;52601;53.070;10.600;2023-04-03T17:16:45;2.50;;;0.70;;
33188;SDS011;52601;53.070;10.600;2023-04-03T17:19:31;1.23;;;0.70;;
33188;SDS011;52601;53.070;10.600;2023-04-03T17:22:17;3.67;;;1.87;;
33188;SDS011;52601;53.070;10.600;2023-04-03T17:25:02;1.33;;;0.57;;
33188;SDS011;52601;53.070;10.600;2023-04-03T17:27:48;1.55;;;0.60;;
33188;SDS011;52601;53.070;10.600;2023-04-03T17:30:34;1.17;;;0.50;;
33188;SDS011;52601;53.070;10.600;2023-04-03T17:33:19;3.50;;;0.90;;
33188;SDS011;52601;53.070;10.600;2023-04-03T17:36:05;3.10;;;1.07;;
33188;SDS011;52601;53.070;10.600;2023-04-03T17:38:52;1.17;;;0.60;;
33188;SDS011;52601;53.070;10.600;2023-04-03T17:41:37;1.25;;;0.70;;
33188;SDS011;52601;53.070;10.600;2023-04-03T17:44:23;1.15;;;0.47;;
33188;SDS011;52601;53.070;10.600;2023-04-03T17:47:09;2.15;;;0.77;;
33188;SDS011;52601;53.070;10.600;2023-04-03T17:49:55;2.83;;;0.52;;
33188;SDS011;52601;53.070;10.600;2023-04-03T17:52:40;2.60;;;1.23;;
33188;SDS011;52601;53.070;10.600;2023-04-03T17:55:26;1.03;;;0.50;;
33188;SDS011;52601;53.070;10.600;2023-04-03T17:58:11;1.70;;;0.88;;
33188;SDS011;52601;53.070;10.600;2023-04-03T18:00:57;1.30;;;0.80;;
33188;SDS011;52601;53.070;10.600;2023-04-03T18:03:42;3.30;;;0.93;;
33188;SDS011;52601;53.070;10.600;2023-04-03T18:06:30;2.72;;;0.90;;
33188;SDS011;52601;53.070;10.600;2023-04-03T18:09:20;1.13;;;0.85;;
33188;SDS011;52601;53.070;10.600;2023-04-03T18:12:11;1.27;;;0.80;;
33188;SDS011;52601;53.070;10.600;2023-04-03T18:14:56;1.73;;;0.70;;
33188;SDS011;52601;53.070;10.600;2023-04-03T18:17:43;2.03;;;1.05;;
33188;SDS011;52601;53.070;10.600;2023-04-03T18:20:30;1.98;;;1.00;;
33188;SDS011;52601;53.070;10.600;2023-04-03T18:23:16;3.37;;;1.83;;
33188;SDS011;52601;53.070;10.600;2023-04-03T18:26:02;1.25;;;0.90;;
33188;SDS011;52601;53.070;10.600;2023-04-03T18:28:49;0.82;;;0.70;;
33188;SDS011;52601;53.070;10.600;2023-04-03T18:31:41;0.80;;;0.80;;
33188;SDS011;52601;53.070;10.600;2023-04-03T18:34:30;0.70;;;0.60;;